sensor_id;sensor_type;location;lat;lon;timestamp;temperature;humidity
48648;DHT22;34437;-33.956;151.076;2023-04-29T00:01:36;23.10;68.50
48648;DHT22;34437;-33.956;151.076;2023-04-29T00:03:59;23.10;68.60
48648;DHT22;34437;-33.956;151.076;2023-04-29T00:06:21;23.10;69.20
48648;DHT22;34437;-33.956;151.076;2023-04-29T00:08:44;23.20;68.60
48648;DHT22;34437;-33.956;151.076;2023-04-29T00:11:06;23.20;68.60
48648;DHT22;34437;-33.956;151.076;2023-04-29T00:13:29;23.20;68.60
48648;DHT22;34437;-33.956;151.076;2023-04-29T00:15:51;23.20;68.60
48648;DHT22;34437;-33.956;151.076;2023-04-29T00:18:14;23.20;68.50
48648;DHT22;34437;-33.956;151.076;2023-04-29T00:20:36;23.20;68.60
48648;DHT22;34437;-33.956;151.076;2023-04-29T00:23:00;23.20;68.70
48648;DHT22;34437;-33.956;151.076;2023-04-29T00:25:22;23.30;68.70
48648;DHT22;34437;-33.956;151.076;2023-04-29T00:27:45;23.30;68.60
48648;DHT22;34437;-33.956;151.076;2023-04-29T00:30:07;23.30;68.60
48648;DHT22;34437;-33.956;151.076;2023-04-29T00:32:30;23.30;68.50
48648;DHT22;34437;-33.956;151.076;2023-04-29T00:34:52;23.30;68.20
48648;DHT22;34437;-33.956;151.076;2023-04-29T00:37:15;23.30;68.20
48648;DHT22;34437;-33.956;151.076;2023-04-29T00:39:37;23.20;68.30
48648;DHT22;34437;-33.956;151.076;2023-04-29T00:42:00;23.20;68.30
48648;DHT22;34437;-33.956;151.076;2023-04-29T00:44:24;23.30;68.00
48648;DHT22;34437;-33.956;151.076;2023-04-29T00:46:46;23.20;68.10
48648;DHT22;34437;-33.956;151.076;2023-04-29T00:49:09;23.20;68.50
48648;DHT22;34437;-33.956;151.076;2023-04-29T00:51:32;23.20;68.50
48648;DHT22;34437;-33.956;151.076;2023-04-29T00:53:55;23.20;68.40
48648;DHT22;34437;-33.956;151.076;2023-04-29T00:56:18;23.20;68.70
48648;DHT22;34437;-33.956;151.076;2023-04-29T00:58:43;23.20;68.50
48648;DHT22;34437;-33.956;151.076;2023-04-29T01:01:11;23.20;68.40
48648;DHT22;34437;-33.956;151.076;2023-04-29T01:03:33;23.20;68.30
48648;DHT22;34437;-33.956;151.076;2023-04-29T01:06:25;23.20;68.20
48648;DHT22;34437;-33.956;151.076;2023-04-29T01:11:34;23.20;68.00
48648;DHT22;34437;-33.956;151.076;2023-04-29T01:14:02;23.20;68.00
48648;DHT22;34437;-33.956;151.076;2023-04-29T01:16:37;23.20;68.10
48648;DHT22;34437;-33.956;151.076;2023-04-29T01:19:33;23.20;67.90
48648;DHT22;34437;-33.956;151.076;2023-04-29T01:21:49;23.20;67.70
48648;DHT22;34437;-33.956;151.076;2023-04-29T01:24:11;23.10;67.60
48648;DHT22;34437;-33.956;151.076;2023-04-29T01:26:34;23.10;67.60
48648;DHT22;34437;-33.956;151.076;2023-04-29T01:29:20;23.10;67.60
48648;DHT22;34437;-33.956;151.076;2023-04-29T01:32:05;23.10;67.60
48648;DHT22;34437;-33.956;151.076;2023-04-29T01:34:48;23.10;67.60
48648;DHT22;34437;-33.956;151.076;2023-04-29T01:37:32;23.10;67.60
48648;DHT22;34437;-33.956;151.076;2023-04-29T01:40:11;23.10;67.60
48648;DHT22;34437;-33.956;151.076;2023-04-29T01:45:01;23.00;67.50
48648;DHT22;34437;-33.956;151.076;2023-04-29T01:47:25;23.00;67.60
48648;DHT22;34437;-33.956;151.076;2023-04-29T01:49:49;23.00;67.60
48648;DHT22;34437;-33.956;151.076;2023-04-29T01:52:11;23.00;67.50
48648;DHT22;34437;-33.956;151.076;2023-04-29T01:54:34;23.00;67.60
48648;DHT22;34437;-33.956;151.076;2023-04-29T01:56:59;23.00;67.60
48648;DHT22;34437;-33.956;151.076;2023-04-29T01:59:21;23.00;67.60
48648;DHT22;34437;-33.956;151.076;2023-04-29T02:01:44;23.00;67.60
48648;DHT22;34437;-33.956;151.076;2023-04-29T02:04:06;23.00;67.60
48648;DHT22;34437;-33.956;151.076;2023-04-29T02:06:29;22.90;67.60
48648;DHT22;34437;-33.956;151.076;2023-04-29T02:08:52;22.90;67.60
48648;DHT22;34437;-33.956;151.076;2023-04-29T02:11:15;22.90;67.60
48648;DHT22;34437;-33.956;151.076;2023-04-29T02:13:37;22.90;67.50
48648;DHT22;34437;-33.956;151.076;2023-04-29T02:16:09;22.90;67.60
48648;DHT22;34437;-33.956;151.076;2023-04-29T02:18:32;22.90;67.60
48648;DHT22;34437;-33.956;151.076;2023-04-29T02:21:00;22.90;67.60
48648;DHT22;34437;-33.956;151.076;2023-04-29T02:23:22;22.90;67.60
48648;DHT22;34437;-33.956;151.076;2023-04-29T02:25:45;22.90;67.60
48648;DHT22;34437;-33.956;151.076;2023-04-29T02:28:08;22.90;67.60
48648;DHT22;34437;-33.956;151.076;2023-04-29T02:30:30;22.90;67.70
48648;DHT22;34437;-33.956;151.076;2023-04-29T02:32:53;22.80;67.60
48648;DHT22;34437;-33.956;151.076;2023-04-29T02:35:16;22.80;67.60
48648;DHT22;34437;-33.956;151.076;2023-04-29T02:37:38;22.80;67.70
48648;DHT22;34437;-33.956;151.076;2023-04-29T02:40:01;22.80;67.70
48648;DHT22;34437;-33.956;151.076;2023-04-29T02:42:24;22.80;67.70
48648;DHT22;34437;-33.956;151.076;2023-04-29T02:44:46;22.80;67.70
48648;DHT22;34437;-33.956;151.076;2023-04-29T02:47:09;22.80;67.70
48648;DHT22;34437;-33.956;151.076;2023-04-29T02:49:31;22.80;67.70
48648;DHT22;34437;-33.956;151.076;2023-04-29T02:51:54;22.70;67.70
48648;DHT22;34437;-33.956;151.076;2023-04-29T02:54:16;22.70;67.70
48648;DHT22;34437;-33.956;151.076;2023-04-29T02:56:39;22.80;67.70
48648;DHT22;34437;-33.956;151.076;2023-04-29T02:59:01;22.70;67.70
48648;DHT22;34437;-33.956;151.076;2023-04-29T03:01:24;22.70;67.70
48648;DHT22;34437;-33.956;151.076;2023-04-29T03:03:46;22.70;67.70
48648;DHT22;34437;-33.956;151.076;2023-04-29T03:06:09;22.70;67.70
48648;DHT22;34437;-33.956;151.076;2023-04-29T03:08:32;22.70;67.70
48648;DHT22;34437;-33.956;151.076;2023-04-29T03:10:54;22.70;67.70
48648;DHT22;34437;-33.956;151.076;2023-04-29T03:13:17;22.70;67.70
48648;DHT22;34437;-33.956;151.076;2023-04-29T03:15:39;22.70;67.80
48648;DHT22;34437;-33.956;151.076;2023-04-29T03:18:02;22.70;67.80
48648;DHT22;34437;-33.956;151.076;2023-04-29T03:20:25;22.70;67.90
48648;DHT22;34437;-33.956;151.076;2023-04-29T03:22:48;22.70;67.80
48648;DHT22;34437;-33.956;151.076;2023-04-29T03:25:10;22.70;67.90
48648;DHT22;34437;-33.956;151.076;2023-04-29T03:27:33;22.70;67.90
48648;DHT22;34437;-33.956;151.076;2023-04-29T03:29:56;22.60;67.90
48648;DHT22;34437;-33.956;151.076;2023-04-29T03:32:19;22.70;68.00
48648;DHT22;34437;-33.956;151.076;2023-04-29T03:34:41;22.60;67.90
48648;DHT22;34437;-33.956;151.076;2023-04-29T03:37:03;22.60;67.90
48648;DHT22;34437;-33.956;151.076;2023-04-29T03:39:26;22.60;67.90
48648;DHT22;34437;-33.956;151.076;2023-04-29T03:41:53;22.60;68.00
48648;DHT22;34437;-33.956;151.076;2023-04-29T03:44:15;22.60;68.00
48648;DHT22;34437;-33.956;151.076;2023-04-29T03:46:37;22.60;68.00
48648;DHT22;34437;-33.956;151.076;2023-04-29T03:49:00;22.60;68.00
48648;DHT22;34437;-33.956;151.076;2023-04-29T03:51:25;22.60;68.00
48648;DHT22;34437;-33.956;151.076;2023-04-29T03:53:49;22.60;68.00
48648;DHT22;34437;-33.956;151.076;2023-04-29T03:56:12;22.60;68.00
48648;DHT22;34437;-33.956;151.076;2023-04-29T03:58:34;22.60;68.00
48648;DHT22;34437;-33.956;151.076;2023-04-29T04:00:57;22.60;68.00
48648;DHT22;34437;-33.956;151.076;2023-04-29T04:03:19;22.60;68.10
48648;DHT22;34437;-33.956;151.076;2023-04-29T04:05:43;22.60;68.10
48648;DHT22;34437;-33.956;151.076;2023-04-29T04:08:05;22.60;68.10
48648;DHT22;34437;-33.956;151.076;2023-04-29T04:10:28;22.60;68.10
48648;DHT22;34437;-33.956;151.076;2023-04-29T04:12:50;22.60;68.10
48648;DHT22;34437;-33.956;151.076;2023-04-29T04:15:13;22.60;68.10
48648;DHT22;34437;-33.956;151.076;2023-04-29T04:17:35;22.60;68.10
48648;DHT22;34437;-33.956;151.076;2023-04-29T04:19:58;22.50;68.10
48648;DHT22;34437;-33.956;151.076;2023-04-29T04:22:20;22.60;68.20
48648;DHT22;34437;-33.956;151.076;2023-04-29T04:24:43;22.60;68.20
48648;DHT22;34437;-33.956;151.076;2023-04-29T04:27:05;22.60;68.20
48648;DHT22;34437;-33.956;151.076;2023-04-29T04:29:28;22.50;68.10
48648;DHT22;34437;-33.956;151.076;2023-04-29T04:31:50;22.50;68.20
48648;DHT22;34437;-33.956;151.076;2023-04-29T04:34:12;22.60;68.20
48648;DHT22;34437;-33.956;151.076;2023-04-29T04:36:35;22.60;68.20
48648;DHT22;34437;-33.956;151.076;2023-04-29T04:38:57;22.50;68.20
48648;DHT22;34437;-33.956;151.076;2023-04-29T04:41:20;22.50;68.20
48648;DHT22;34437;-33.956;151.076;2023-04-29T04:43:42;22.60;68.20
48648;DHT22;34437;-33.956;151.076;2023-04-29T04:46:15;22.50;68.20
48648;DHT22;34437;-33.956;151.076;2023-04-29T04:48:38;22.50;68.20
48648;DHT22;34437;-33.956;151.076;2023-04-29T04:51:10;22.50;68.20
48648;DHT22;34437;-33.956;151.076;2023-04-29T04:53:33;22.50;68.20
48648;DHT22;34437;-33.956;151.076;2023-04-29T04:55:59;22.50;68.30
48648;DHT22;34437;-33.956;151.076;2023-04-29T04:58:21;22.50;68.20
48648;DHT22;34437;-33.956;151.076;2023-04-29T05:00:45;22.50;68.20
48648;DHT22;34437;-33.956;151.076;2023-04-29T05:03:07;22.50;68.20
48648;DHT22;34437;-33.956;151.076;2023-04-29T05:05:31;22.50;68.20
48648;DHT22;34437;-33.956;151.076;2023-04-29T05:07:54;22.50;68.20
48648;DHT22;34437;-33.956;151.076;2023-04-29T05:10:16;22.50;68.20
48648;DHT22;34437;-33.956;151.076;2023-04-29T05:12:39;22.50;68.20
48648;DHT22;34437;-33.956;151.076;2023-04-29T05:15:02;22.50;68.20
48648;DHT22;34437;-33.956;151.076;2023-04-29T05:17:25;22.50;68.30
48648;DHT22;34437;-33.956;151.076;2023-04-29T05:19:47;22.50;68.30
48648;DHT22;34437;-33.956;151.076;2023-04-29T05:22:09;22.40;68.20
48648;DHT22;34437;-33.956;151.076;2023-04-29T05:24:32;22.40;68.20
48648;DHT22;34437;-33.956;151.076;2023-04-29T05:26:54;22.50;68.30
48648;DHT22;34437;-33.956;151.076;2023-04-29T05:29:17;22.50;68.30
48648;DHT22;34437;-33.956;151.076;2023-04-29T05:31:39;22.50;68.30
48648;DHT22;34437;-33.956;151.076;2023-04-29T05:34:02;22.50;68.30
48648;DHT22;34437;-33.956;151.076;2023-04-29T05:36:24;22.50;68.40
48648;DHT22;34437;-33.956;151.076;2023-04-29T05:38:48;22.40;68.30
48648;DHT22;34437;-33.956;151.076;2023-04-29T05:41:11;22.40;68.30
48648;DHT22;34437;-33.956;151.076;2023-04-29T05:43:34;22.40;68.30
48648;DHT22;34437;-33.956;151.076;2023-04-29T05:45:57;22.40;68.30
48648;DHT22;34437;-33.956;151.076;2023-04-29T05:48:19;22.40;68.30
48648;DHT22;34437;-33.956;151.076;2023-04-29T05:50:42;22.40;68.40
48648;DHT22;34437;-33.956;151.076;2023-04-29T05:53:04;22.40;68.30
48648;DHT22;34437;-33.956;151.076;2023-04-29T05:55:27;22.40;68.40
48648;DHT22;34437;-33.956;151.076;2023-04-29T05:57:49;22.40;68.40
48648;DHT22;34437;-33.956;151.076;2023-04-29T06:00:12;22.40;68.40
48648;DHT22;34437;-33.956;151.076;2023-04-29T06:02:34;22.40;68.40
48648;DHT22;34437;-33.956;151.076;2023-04-29T06:04:57;22.40;68.40
48648;DHT22;34437;-33.956;151.076;2023-04-29T06:07:19;22.40;68.40
48648;DHT22;34437;-33.956;151.076;2023-04-29T06:09:42;22.40;68.40
48648;DHT22;34437;-33.956;151.076;2023-04-29T06:12:05;22.30;68.40
48648;DHT22;34437;-33.956;151.076;2023-04-29T06:14:30;22.30;68.40
48648;DHT22;34437;-33.956;151.076;2023-04-29T06:16:55;22.30;68.40
48648;DHT22;34437;-33.956;151.076;2023-04-29T06:19:17;22.30;68.50
48648;DHT22;34437;-33.956;151.076;2023-04-29T06:21:40;22.30;68.50
48648;DHT22;34437;-33.956;151.076;2023-04-29T06:24:02;22.30;68.50
48648;DHT22;34437;-33.956;151.076;2023-04-29T06:26:25;22.30;68.50
48648;DHT22;34437;-33.956;151.076;2023-04-29T06:28:56;22.30;68.50
48648;DHT22;34437;-33.956;151.076;2023-04-29T06:31:22;22.30;68.50
48648;DHT22;34437;-33.956;151.076;2023-04-29T06:33:44;22.30;68.60
48648;DHT22;34437;-33.956;151.076;2023-04-29T06:36:07;22.30;68.60
48648;DHT22;34437;-33.956;151.076;2023-04-29T06:38:30;22.30;68.60
48648;DHT22;34437;-33.956;151.076;2023-04-29T06:40:53;22.30;68.70
48648;DHT22;34437;-33.956;151.076;2023-04-29T06:43:15;22.30;68.60
48648;DHT22;34437;-33.956;151.076;2023-04-29T06:45:38;22.30;68.70
48648;DHT22;34437;-33.956;151.076;2023-04-29T06:48:00;22.30;68.70
48648;DHT22;34437;-33.956;151.076;2023-04-29T06:50:22;22.30;68.70
48648;DHT22;34437;-33.956;151.076;2023-04-29T06:52:45;22.30;68.70
48648;DHT22;34437;-33.956;151.076;2023-04-29T06:55:08;22.30;68.90
48648;DHT22;34437;-33.956;151.076;2023-04-29T06:57:31;22.30;69.00
48648;DHT22;34437;-33.956;151.076;2023-04-29T06:59:54;22.30;69.00
48648;DHT22;34437;-33.956;151.076;2023-04-29T07:02:17;22.20;68.90
48648;DHT22;34437;-33.956;151.076;2023-04-29T07:04:39;22.20;69.00
48648;DHT22;34437;-33.956;151.076;2023-04-29T07:07:02;22.30;69.00
48648;DHT22;34437;-33.956;151.076;2023-04-29T07:09:24;22.30;69.10
48648;DHT22;34437;-33.956;151.076;2023-04-29T07:11:54;22.20;69.00
48648;DHT22;34437;-33.956;151.076;2023-04-29T07:14:20;22.20;69.00
48648;DHT22;34437;-33.956;151.076;2023-04-29T07:16:45;22.20;69.00
48648;DHT22;34437;-33.956;151.076;2023-04-29T07:19:08;22.20;69.00
48648;DHT22;34437;-33.956;151.076;2023-04-29T07:21:37;22.20;69.00
48648;DHT22;34437;-33.956;151.076;2023-04-29T07:24:42;22.20;69.10
48648;DHT22;34437;-33.956;151.076;2023-04-29T07:27:16;22.20;69.70
48648;DHT22;34437;-33.956;151.076;2023-04-29T07:29:43;22.20;69.10
48648;DHT22;34437;-33.956;151.076;2023-04-29T07:32:05;22.20;69.20
48648;DHT22;34437;-33.956;151.076;2023-04-29T07:34:31;22.20;69.20
48648;DHT22;34437;-33.956;151.076;2023-04-29T07:37:01;22.20;69.30
48648;DHT22;34437;-33.956;151.076;2023-04-29T07:39:32;22.20;69.20
48648;DHT22;34437;-33.956;151.076;2023-04-29T07:41:59;22.20;69.30
48648;DHT22;34437;-33.956;151.076;2023-04-29T07:44:23;22.20;69.30
48648;DHT22;34437;-33.956;151.076;2023-04-29T07:46:45;22.20;69.30
48648;DHT22;34437;-33.956;151.076;2023-04-29T07:49:08;22.20;69.30
48648;DHT22;34437;-33.956;151.076;2023-04-29T07:51:31;22.20;69.30
48648;DHT22;34437;-33.956;151.076;2023-04-29T07:53:53;22.20;69.40
48648;DHT22;34437;-33.956;151.076;2023-04-29T07:56:16;22.20;69.40
48648;DHT22;34437;-33.956;151.076;2023-04-29T07:58:41;22.10;69.30
48648;DHT22;34437;-33.956;151.076;2023-04-29T08:01:07;22.10;69.30
48648;DHT22;34437;-33.956;151.076;2023-04-29T08:03:30;22.10;69.40
48648;DHT22;34437;-33.956;151.076;2023-04-29T08:05:53;22.10;69.30
48648;DHT22;34437;-33.956;151.076;2023-04-29T08:08:17;22.10;69.30
48648;DHT22;34437;-33.956;151.076;2023-04-29T08:10:39;22.10;69.40
48648;DHT22;34437;-33.956;151.076;2023-04-29T08:13:03;22.10;69.40
48648;DHT22;34437;-33.956;151.076;2023-04-29T08:15:26;22.10;69.40
48648;DHT22;34437;-33.956;151.076;2023-04-29T08:17:48;22.10;69.50
48648;DHT22;34437;-33.956;151.076;2023-04-29T08:20:11;22.10;69.50
48648;DHT22;34437;-33.956;151.076;2023-04-29T08:22:34;22.10;69.50
48648;DHT22;34437;-33.956;151.076;2023-04-29T08:24:57;22.10;69.50
48648;DHT22;34437;-33.956;151.076;2023-04-29T08:27:19;22.10;69.50
48648;DHT22;34437;-33.956;151.076;2023-04-29T08:29:42;22.10;69.50
48648;DHT22;34437;-33.956;151.076;2023-04-29T08:32:05;22.10;69.50
48648;DHT22;34437;-33.956;151.076;2023-04-29T08:34:27;22.10;69.50
48648;DHT22;34437;-33.956;151.076;2023-04-29T08:36:50;22.10;69.50
48648;DHT22;34437;-33.956;151.076;2023-04-29T08:39:12;22.10;69.50
48648;DHT22;34437;-33.956;151.076;2023-04-29T08:41:36;22.10;69.50
48648;DHT22;34437;-33.956;151.076;2023-04-29T08:43:59;22.00;69.40
48648;DHT22;34437;-33.956;151.076;2023-04-29T08:46:24;22.10;69.50
48648;DHT22;34437;-33.956;151.076;2023-04-29T08:48:47;22.10;69.50
48648;DHT22;34437;-33.956;151.076;2023-04-29T08:51:11;22.10;69.50
48648;DHT22;34437;-33.956;151.076;2023-04-29T08:53:36;22.10;69.50
48648;DHT22;34437;-33.956;151.076;2023-04-29T08:56:13;22.00;69.50
48648;DHT22;34437;-33.956;151.076;2023-04-29T08:58:38;22.10;69.50
48648;DHT22;34437;-33.956;151.076;2023-04-29T09:01:02;22.00;69.50
48648;DHT22;34437;-33.956;151.076;2023-04-29T09:04:29;22.00;69.50
48648;DHT22;34437;-33.956;151.076;2023-04-29T09:06:19;22.00;69.50
48648;DHT22;34437;-33.956;151.076;2023-04-29T09:08:42;22.00;69.50
48648;DHT22;34437;-33.956;151.076;2023-04-29T09:11:08;22.00;69.60
48648;DHT22;34437;-33.956;151.076;2023-04-29T09:13:32;22.00;69.60
48648;DHT22;34437;-33.956;151.076;2023-04-29T09:15:55;22.00;69.60
48648;DHT22;34437;-33.956;151.076;2023-04-29T09:18:46;22.00;69.70
48648;DHT22;34437;-33.956;151.076;2023-04-29T09:21:24;22.00;69.60
48648;DHT22;34437;-33.956;151.076;2023-04-29T09:23:53;21.90;69.60
48648;DHT22;34437;-33.956;151.076;2023-04-29T09:26:16;22.00;69.60
48648;DHT22;34437;-33.956;151.076;2023-04-29T09:28:39;21.90;69.60
48648;DHT22;34437;-33.956;151.076;2023-04-29T09:31:04;21.90;69.60
48648;DHT22;34437;-33.956;151.076;2023-04-29T09:33:28;21.90;69.60
48648;DHT22;34437;-33.956;151.076;2023-04-29T09:35:52;21.90;69.60
48648;DHT22;34437;-33.956;151.076;2023-04-29T09:38:15;21.90;69.60
48648;DHT22;34437;-33.956;151.076;2023-04-29T09:40:39;21.90;69.00
48648;DHT22;34437;-33.956;151.076;2023-04-29T09:43:01;21.90;69.60
48648;DHT22;34437;-33.956;151.076;2023-04-29T09:48:06;21.90;69.60
48648;DHT22;34437;-33.956;151.076;2023-04-29T09:50:29;21.90;69.60
48648;DHT22;34437;-33.956;151.076;2023-04-29T09:52:53;21.90;69.60
48648;DHT22;34437;-33.956;151.076;2023-04-29T09:55:15;21.90;69.60
48648;DHT22;34437;-33.956;151.076;2023-04-29T09:57:41;21.90;69.60
48648;DHT22;34437;-33.956;151.076;2023-04-29T10:00:04;21.90;69.70
48648;DHT22;34437;-33.956;151.076;2023-04-29T10:02:27;21.90;69.70
48648;DHT22;34437;-33.956;151.076;2023-04-29T10:04:53;21.90;69.70
48648;DHT22;34437;-33.956;151.076;2023-04-29T10:07:19;21.90;69.80
48648;DHT22;34437;-33.956;151.076;2023-04-29T10:09:44;21.80;69.70
48648;DHT22;34437;-33.956;151.076;2023-04-29T10:12:09;21.80;69.70
48648;DHT22;34437;-33.956;151.076;2023-04-29T10:14:42;21.80;69.70
48648;DHT22;34437;-33.956;151.076;2023-04-29T10:17:32;21.80;69.80
48648;DHT22;34437;-33.956;151.076;2023-04-29T10:20:04;21.80;69.80
48648;DHT22;34437;-33.956;151.076;2023-04-29T10:22:39;21.80;69.80
48648;DHT22;34437;-33.956;151.076;2023-04-29T10:25:07;21.80;69.90
48648;DHT22;34437;-33.956;151.076;2023-04-29T10:27:32;21.70;69.80
48648;DHT22;34437;-33.956;151.076;2023-04-29T10:29:55;21.70;69.90
48648;DHT22;34437;-33.956;151.076;2023-04-29T10:32:19;21.70;69.90
48648;DHT22;34437;-33.956;151.076;2023-04-29T10:34:43;21.70;70.00
48648;DHT22;34437;-33.956;151.076;2023-04-29T10:37:15;21.70;70.00
48648;DHT22;34437;-33.956;151.076;2023-04-29T10:42:47;21.70;70.00
48648;DHT22;34437;-33.956;151.076;2023-04-29T10:45:30;21.60;70.00
48648;DHT22;34437;-33.956;151.076;2023-04-29T10:50:28;21.60;70.00
48648;DHT22;34437;-33.956;151.076;2023-04-29T10:52:54;21.60;70.00
48648;DHT22;34437;-33.956;151.076;2023-04-29T10:55:18;21.60;70.00
48648;DHT22;34437;-33.956;151.076;2023-04-29T10:57:40;21.60;70.00
48648;DHT22;34437;-33.956;151.076;2023-04-29T11:00:04;21.70;70.00
48648;DHT22;34437;-33.956;151.076;2023-04-29T11:02:27;21.60;70.00
48648;DHT22;34437;-33.956;151.076;2023-04-29T11:05:09;21.60;70.00
48648;DHT22;34437;-33.956;151.076;2023-04-29T11:07:32;21.60;70.00
48648;DHT22;34437;-33.956;151.076;2023-04-29T11:09:55;21.60;70.00
48648;DHT22;34437;-33.956;151.076;2023-04-29T11:12:19;21.60;70.00
48648;DHT22;34437;-33.956;151.076;2023-04-29T11:14:48;21.60;70.00
48648;DHT22;34437;-33.956;151.076;2023-04-29T11:17:13;21.60;70.00
48648;DHT22;34437;-33.956;151.076;2023-04-29T11:19:45;21.60;70.10
48648;DHT22;34437;-33.956;151.076;2023-04-29T11:24:58;21.50;70.10
48648;DHT22;34437;-33.956;151.076;2023-04-29T11:27:23;21.50;70.10
48648;DHT22;34437;-33.956;151.076;2023-04-29T11:29:50;21.50;70.10
48648;DHT22;34437;-33.956;151.076;2023-04-29T11:32:13;21.60;70.10
48648;DHT22;34437;-33.956;151.076;2023-04-29T11:34:35;21.60;70.10
48648;DHT22;34437;-33.956;151.076;2023-04-29T11:36:58;21.50;70.00
48648;DHT22;34437;-33.956;151.076;2023-04-29T11:39:21;21.60;70.10
48648;DHT22;34437;-33.956;151.076;2023-04-29T11:41:44;21.50;70.00
48648;DHT22;34437;-33.956;151.076;2023-04-29T11:44:06;21.50;70.50
48648;DHT22;34437;-33.956;151.076;2023-04-29T11:46:31;21.50;70.10
48648;DHT22;34437;-33.956;151.076;2023-04-29T11:48:53;21.50;70.00
48648;DHT22;34437;-33.956;151.076;2023-04-29T11:51:17;21.50;70.00
48648;DHT22;34437;-33.956;151.076;2023-04-29T11:53:39;21.50;70.10
48648;DHT22;34437;-33.956;151.076;2023-04-29T11:56:02;21.50;70.10
48648;DHT22;34437;-33.956;151.076;2023-04-29T11:58:25;21.50;70.10
48648;DHT22;34437;-33.956;151.076;2023-04-29T12:00:48;21.50;70.10
48648;DHT22;34437;-33.956;151.076;2023-04-29T12:03:14;21.50;70.10
48648;DHT22;34437;-33.956;151.076;2023-04-29T12:05:37;21.50;70.20
48648;DHT22;34437;-33.956;151.076;2023-04-29T12:08:00;21.50;70.20
48648;DHT22;34437;-33.956;151.076;2023-04-29T12:10:22;21.40;70.10
48648;DHT22;34437;-33.956;151.076;2023-04-29T12:12:44;21.50;70.20
48648;DHT22;34437;-33.956;151.076;2023-04-29T12:15:09;21.40;70.30
48648;DHT22;34437;-33.956;151.076;2023-04-29T12:17:31;21.40;70.20
48648;DHT22;34437;-33.956;151.076;2023-04-29T12:19:54;21.50;70.20
48648;DHT22;34437;-33.956;151.076;2023-04-29T12:22:16;21.40;70.20
48648;DHT22;34437;-33.956;151.076;2023-04-29T12:24:40;21.40;70.10
48648;DHT22;34437;-33.956;151.076;2023-04-29T12:27:03;21.40;70.10
48648;DHT22;34437;-33.956;151.076;2023-04-29T12:29:30;21.40;70.10
48648;DHT22;34437;-33.956;151.076;2023-04-29T12:31:54;21.40;70.10
48648;DHT22;34437;-33.956;151.076;2023-04-29T12:34:23;21.40;70.10
48648;DHT22;34437;-33.956;151.076;2023-04-29T12:36:45;21.40;70.10
48648;DHT22;34437;-33.956;151.076;2023-04-29T12:39:10;21.40;70.10
48648;DHT22;34437;-33.956;151.076;2023-04-29T12:41:41;21.40;70.10
48648;DHT22;34437;-33.956;151.076;2023-04-29T12:44:05;21.40;70.10
48648;DHT22;34437;-33.956;151.076;2023-04-29T12:46:27;21.40;70.10
48648;DHT22;34437;-33.956;151.076;2023-04-29T12:48:50;21.40;70.40
48648;DHT22;34437;-33.956;151.076;2023-04-29T12:51:12;21.40;70.40
48648;DHT22;34437;-33.956;151.076;2023-04-29T12:53:35;21.40;70.40
48648;DHT22;34437;-33.956;151.076;2023-04-29T12:55:58;21.40;70.50
48648;DHT22;34437;-33.956;151.076;2023-04-29T12:58:21;21.40;71.00
48648;DHT22;34437;-33.956;151.076;2023-04-29T13:00:43;21.40;71.10
48648;DHT22;34437;-33.956;151.076;2023-04-29T13:03:05;21.40;71.30
48648;DHT22;34437;-33.956;151.076;2023-04-29T13:05:28;21.40;71.50
48648;DHT22;34437;-33.956;151.076;2023-04-29T13:07:50;21.40;71.70
48648;DHT22;34437;-33.956;151.076;2023-04-29T13:10:13;21.40;72.10
48648;DHT22;34437;-33.956;151.076;2023-04-29T13:12:35;21.40;72.00
48648;DHT22;34437;-33.956;151.076;2023-04-29T13:14:58;21.40;72.10
48648;DHT22;34437;-33.956;151.076;2023-04-29T13:17:20;21.40;72.20
48648;DHT22;34437;-33.956;151.076;2023-04-29T13:19:43;21.40;72.20
48648;DHT22;34437;-33.956;151.076;2023-04-29T13:22:05;21.40;72.20
48648;DHT22;34437;-33.956;151.076;2023-04-29T13:24:28;21.40;72.20
48648;DHT22;34437;-33.956;151.076;2023-04-29T13:26:50;21.40;72.40
48648;DHT22;34437;-33.956;151.076;2023-04-29T13:29:13;21.40;72.40
48648;DHT22;34437;-33.956;151.076;2023-04-29T13:31:36;21.40;72.40
48648;DHT22;34437;-33.956;151.076;2023-04-29T13:33:58;21.50;72.40
48648;DHT22;34437;-33.956;151.076;2023-04-29T13:36:21;21.50;72.50
48648;DHT22;34437;-33.956;151.076;2023-04-29T13:38:43;21.40;72.70
48648;DHT22;34437;-33.956;151.076;2023-04-29T13:41:05;21.50;72.70
48648;DHT22;34437;-33.956;151.076;2023-04-29T13:43:28;21.50;72.60
48648;DHT22;34437;-33.956;151.076;2023-04-29T13:45:50;21.50;72.50
48648;DHT22;34437;-33.956;151.076;2023-04-29T13:48:13;21.50;72.60
48648;DHT22;34437;-33.956;151.076;2023-04-29T13:50:35;21.50;72.70
48648;DHT22;34437;-33.956;151.076;2023-04-29T13:52:57;21.50;72.50
48648;DHT22;34437;-33.956;151.076;2023-04-29T13:55:20;21.50;72.40
48648;DHT22;34437;-33.956;151.076;2023-04-29T13:57:42;21.50;72.30
48648;DHT22;34437;-33.956;151.076;2023-04-29T14:00:06;21.50;72.30
48648;DHT22;34437;-33.956;151.076;2023-04-29T14:02:30;21.60;72.70
48648;DHT22;34437;-33.956;151.076;2023-04-29T14:04:52;21.60;72.80
48648;DHT22;34437;-33.956;151.076;2023-04-29T14:07:16;21.60;72.80
48648;DHT22;34437;-33.956;151.076;2023-04-29T14:09:38;21.60;72.70
48648;DHT22;34437;-33.956;151.076;2023-04-29T14:12:01;21.60;72.60
48648;DHT22;34437;-33.956;151.076;2023-04-29T14:14:24;21.60;72.60
48648;DHT22;34437;-33.956;151.076;2023-04-29T14:16:46;21.60;72.50
48648;DHT22;34437;-33.956;151.076;2023-04-29T14:19:08;21.60;72.40
48648;DHT22;34437;-33.956;151.076;2023-04-29T14:21:32;21.70;72.50
48648;DHT22;34437;-33.956;151.076;2023-04-29T14:23:54;21.60;72.80
48648;DHT22;34437;-33.956;151.076;2023-04-29T14:26:18;21.60;72.10
48648;DHT22;34437;-33.956;151.076;2023-04-29T14:28:40;21.60;71.80
48648;DHT22;34437;-33.956;151.076;2023-04-29T14:31:03;21.60;71.70
48648;DHT22;34437;-33.956;151.076;2023-04-29T14:33:25;21.60;71.60
48648;DHT22;34437;-33.956;151.076;2023-04-29T14:35:48;21.60;72.00
48648;DHT22;34437;-33.956;151.076;2023-04-29T14:38:10;21.60;72.10
48648;DHT22;34437;-33.956;151.076;2023-04-29T14:40:33;21.60;72.00
48648;DHT22;34437;-33.956;151.076;2023-04-29T14:42:55;21.60;72.00
48648;DHT22;34437;-33.956;151.076;2023-04-29T14:45:17;21.60;71.80
48648;DHT22;34437;-33.956;151.076;2023-04-29T14:47:40;21.60;71.60